This is the latest recevied weather packets stored in our database for station/object SQ3VAS-10. If no packets are shown the sender has not sent any weather packets the latest 1 day(s).
| Time | Temp. | Humidity | Pressure | Rain* | Wind** | Luminosity | Snow |
|---|---|---|---|---|---|---|---|
| 1778101773 | 9.44° C | 84% | 1010.1 hPa | - | - | - | - |
| 1778099485 | 10° C | 84% | 1009.6 hPa | - | - | - | - |
| 1778097770 | 10° C | 84% | 1009.6 hPa | - | - | - | - |
| 1778093766 | 10.56° C | 87% | 1009.2 hPa | - | - | - | - |
| 1778093194 | 10.56° C | 87% | 1009 hPa | - | - | - | - |
| 1778087478 | 12.22° C | 82% | 1008.3 hPa | - | - | - | - |
| 1778086906 | 12.78° C | 81% | 1008.2 hPa | - | - | - | - |
| 1778081756 | 12.78° C | 78% | 1008 hPa | - | - | - | - |
| 1778078321 | 12.78° C | 84% | 1007.7 hPa | - | - | - | - |
| 1778076034 | 12.78° C | 84% | 1007.4 hPa | - | - | - | - |
| 1778074887 | 12.22° C | 88% | 1007.5 hPa | - | - | - | - |
| 1778073743 | 11.67° C | 89% | 1007.3 hPa | - | - | - | - |
| 1778073171 | 11.67° C | 90% | 1007.4 hPa | - | - | - | - |
| 1778070312 | 13.33° C | 89% | 1006.9 hPa | - | - | - | - |
| 1778069740 | 12.78° C | 88% | 1006.9 hPa | - | - | - | - |
| 1778069167 | 13.33° C | 89% | 1006.8 hPa | - | - | - | - |
| 1778068596 | 13.33° C | 91% | 1006.6 hPa | - | - | - | - |
| 1778067450 | 13.33° C | 92% | 1006.5 hPa | - | - | - | - |
| 1778066306 | 12.22° C | 95% | 1006.7 hPa | - | - | - | - |
| 1778065734 | 12.78° C | 94% | 1006.7 hPa | - | - | - | - |
| 1778065162 | 12.22° C | 94% | 1006.6 hPa | - | - | - | - |
| 1778062301 | 12.22° C | 95% | 1006.3 hPa | - | - | - | - |
| 1778061728 | 12.22° C | 95% | 1006.3 hPa | - | - | - | - |
| 1778061156 | 11.67° C | 95% | 1006.5 hPa | - | - | - | - |
| 1778060584 | 11.67° C | 95% | 1006.5 hPa | - | - | - | - |
* Rain since midnight (hover to see other rain measurements)
** Current wind speed in m/s (hover to see current wind gust speed)